createdAt,value
2018-02-19T00:02:28.221Z,35.23
2018-02-19T00:07:31.107Z,34.58
2018-02-19T00:12:33.990Z,34.00
2018-02-19T00:17:37.027Z,30.23
2018-02-19T00:22:40.865Z,33.20
2018-02-19T00:27:43.713Z,32.42
2018-02-19T00:32:46.662Z,34.05
2018-02-19T00:37:49.569Z,32.42
2018-02-19T00:48:22.646Z,30.07
2018-02-19T00:53:25.960Z,33.20
2018-02-19T01:15:34.965Z,37.05
2018-02-19T01:20:37.870Z,35.60
2018-02-19T01:25:40.719Z,33.22
2018-02-19T01:30:44.847Z,33.37
2018-02-19T01:35:47.800Z,31.75
2018-02-19T01:40:50.740Z,36.03
2018-02-19T01:45:54.442Z,32.47
2018-02-19T01:50:59.203Z,32.97
2018-02-19T01:56:02.947Z,34.95
2018-02-19T02:01:07.137Z,34.30
2018-02-19T02:06:11.274Z,34.23
2018-02-19T02:11:18.231Z,30.27
2018-02-19T02:16:21.088Z,33.25
2018-02-19T02:21:24.107Z,36.97
2018-02-19T02:26:27.461Z,41.03
2018-02-19T02:31:30.709Z,38.05
2018-02-19T02:36:33.823Z,36.38
2018-02-19T02:41:36.736Z,36.70
2018-02-19T02:46:40.912Z,35.65
2018-02-19T02:51:44.361Z,33.15
2018-02-19T02:56:47.311Z,36.08
2018-02-19T03:01:50.250Z,34.37
2018-02-19T03:06:53.881Z,37.17
2018-02-19T03:11:56.798Z,38.15
2018-02-19T03:16:59.708Z,39.65
2018-02-19T03:22:03.258Z,35.72
2018-02-19T03:27:06.823Z,37.90
2018-02-19T03:32:11.103Z,36.70
2018-02-19T03:37:13.913Z,34.70
2018-02-19T03:42:16.741Z,37.97
2018-02-19T03:47:20.429Z,37.30
2018-02-19T03:52:23.252Z,38.35
2018-02-19T03:57:27.635Z,36.80
2018-02-19T04:02:30.558Z,37.28
2018-02-19T04:07:33.430Z,37.85
2018-02-19T04:12:36.258Z,38.60
2018-02-19T04:17:39.100Z,34.22
2018-02-19T04:22:42.921Z,34.85
2018-02-19T04:27:45.735Z,36.60
2018-02-19T04:32:49.538Z,33.80
2018-02-19T04:37:52.446Z,35.70
2018-02-19T04:43:13.211Z,37.45
2018-02-19T04:48:16.118Z,40.70
2018-02-19T04:53:18.943Z,38.10
2018-02-19T04:58:22.578Z,38.88
2018-02-19T05:03:26.234Z,45.03
2018-02-19T05:08:29.097Z,43.33
2018-02-19T05:13:32.750Z,41.08
2018-02-19T05:18:36.543Z,37.83
2018-02-19T05:23:40.467Z,42.33
2018-02-19T05:28:43.369Z,38.23
2018-02-19T05:33:46.215Z,41.30
2018-02-19T05:38:49.052Z,45.60
2018-02-19T05:43:52.678Z,43.63
2018-02-19T05:48:55.592Z,43.70
2018-02-19T05:53:59.239Z,39.72
2018-02-19T05:59:02.060Z,41.97
2018-02-19T06:04:04.865Z,40.30
2018-02-19T06:09:08.492Z,42.08
2018-02-19T06:14:11.300Z,38.70
2018-02-19T06:19:14.887Z,41.90
2018-02-19T06:24:17.669Z,40.08
2018-02-19T06:29:20.513Z,43.85
2018-02-19T06:34:24.501Z,45.00
2018-02-19T06:39:28.311Z,44.80
2018-02-19T06:44:31.155Z,49.78
2018-02-19T06:49:34.222Z,42.17
2018-02-19T06:54:37.028Z,46.50
2018-02-19T06:59:39.839Z,46.57
2018-02-19T07:04:42.681Z,47.72
2018-02-19T07:09:45.523Z,47.55
2018-02-19T07:14:48.350Z,43.80
2018-02-19T07:19:51.155Z,42.92
2018-02-19T07:24:54.747Z,47.00
2018-02-19T07:29:58.286Z,40.88
2018-02-19T07:35:01.917Z,41.35
2018-02-19T07:40:05.475Z,45.90
2018-02-19T07:45:08.281Z,42.13
2018-02-19T07:50:11.032Z,39.40
2018-02-19T07:55:14.745Z,40.78
2018-02-19T08:00:18.436Z,39.60
2018-02-19T08:05:21.261Z,41.93
2018-02-19T08:10:24.079Z,42.03
2018-02-19T08:15:26.848Z,38.90
2018-02-19T08:20:30.376Z,42.60
2018-02-19T08:25:33.940Z,37.42
2018-02-19T08:30:37.055Z,40.10
2018-02-19T08:35:39.924Z,38.03
2018-02-19T08:40:42.702Z,40.35
2018-02-19T08:45:46.268Z,39.85
2018-02-19T08:50:49.104Z,37.70
2018-02-19T08:55:51.975Z,35.95
2018-02-19T09:00:54.989Z,37.00
2018-02-19T09:05:58.067Z,31.30
2018-02-19T09:11:00.930Z,33.22
2018-02-19T09:16:04.458Z,30.98
2018-02-19T09:21:07.355Z,30.37
2018-02-19T09:26:10.826Z,28.40
2018-02-19T09:31:15.726Z,27.95
2018-02-19T09:36:19.187Z,25.50
2018-02-19T09:41:22.380Z,27.23
2018-02-19T09:46:28.103Z,27.27
2018-02-19T09:51:35.743Z,26.35
2018-02-19T09:56:39.705Z,26.03
2018-02-19T10:01:45.425Z,24.48
2018-02-19T10:06:53.585Z,25.40
2018-02-19T10:11:57.012Z,24.77
2018-02-19T10:17:00.189Z,25.70
2018-02-19T10:22:03.352Z,24.73
2018-02-19T10:27:07.963Z,22.92
2018-02-19T10:32:11.553Z,24.10
2018-02-19T10:37:15.273Z,22.23
2018-02-19T10:42:19.502Z,24.33
2018-02-19T10:47:23.322Z,23.65
2018-02-19T10:52:27.357Z,22.45
2018-02-19T10:57:30.702Z,22.10
2018-02-19T11:02:34.183Z,22.13
2018-02-19T11:07:37.196Z,23.02
2018-02-19T11:12:40.186Z,22.80
2018-02-19T11:17:43.094Z,21.65
2018-02-19T11:22:46.138Z,25.23
2018-02-19T11:27:50.261Z,23.25
2018-02-19T11:32:54.012Z,24.98
2018-02-19T11:37:57.026Z,21.58
2018-02-19T11:42:59.870Z,22.20
2018-02-19T11:48:03.416Z,19.98
2018-02-19T11:53:06.230Z,20.23
2018-02-19T11:58:09.548Z,21.08
2018-02-19T12:03:13.748Z,21.08
2018-02-19T12:08:17.000Z,20.92
2018-02-19T12:13:19.875Z,20.10
2018-02-19T12:18:22.921Z,20.37
2018-02-19T12:23:25.887Z,19.30
2018-02-19T12:28:31.487Z,19.73
2018-02-19T12:33:34.541Z,20.12
2018-02-19T12:38:39.212Z,19.90
2018-02-19T12:43:42.208Z,20.48
2018-02-19T12:48:45.680Z,20.25
2018-02-19T12:53:49.340Z,18.52
2018-02-19T12:58:52.244Z,17.70
2018-02-19T13:03:55.109Z,19.67
2018-02-19T13:08:58.732Z,19.70
2018-02-19T13:14:01.841Z,18.83
2018-02-19T13:19:05.192Z,19.37
2018-02-19T13:24:08.300Z,17.42
2018-02-19T13:29:11.165Z,18.42
2018-02-19T13:34:14.823Z,19.62
2018-02-19T13:39:18.801Z,18.77
2018-02-19T13:44:22.458Z,18.55
2018-02-19T13:49:25.364Z,20.17
2018-02-19T13:54:29.189Z,15.20
2018-02-19T13:59:32.066Z,16.92
2018-02-19T14:04:34.969Z,14.73
2018-02-19T14:09:38.002Z,16.77
2018-02-19T14:14:41.065Z,19.67
2018-02-19T14:19:45.584Z,16.75
2018-02-19T14:24:48.524Z,14.70
2018-02-19T14:29:51.465Z,15.65
2018-02-19T14:34:55.185Z,15.00
2018-02-19T14:39:59.204Z,15.80
2018-02-19T14:45:02.809Z,16.33
2018-02-19T14:50:05.867Z,16.75
2018-02-19T14:55:10.818Z,15.97
2018-02-19T15:00:13.871Z,15.90
2018-02-19T15:05:18.300Z,14.98
2018-02-19T15:10:21.195Z,17.20
2018-02-19T15:15:24.243Z,16.60
2018-02-19T15:20:27.871Z,17.60
2018-02-19T15:25:30.901Z,14.90
2018-02-19T15:30:33.725Z,16.17
2018-02-19T15:35:36.881Z,13.98
2018-02-19T15:40:39.787Z,14.93
2018-02-19T15:45:42.634Z,14.60
2018-02-19T15:50:45.510Z,15.33
2018-02-19T15:55:48.346Z,18.20
2018-02-19T16:00:51.212Z,16.08
2018-02-19T16:05:54.085Z,17.98
2018-02-19T16:10:58.323Z,16.55
2018-02-19T16:16:04.347Z,16.25
2018-02-19T16:21:08.042Z,16.87
2018-02-19T17:09:54.182Z,18.95
2018-02-19T17:14:57.432Z,23.77
2018-02-19T17:20:01.011Z,19.33
2018-02-19T17:25:06.470Z,17.27
2018-02-19T17:30:09.940Z,23.25
2018-02-19T17:35:13.628Z,31.20
2018-02-19T17:40:17.368Z,22.25
2018-02-19T17:45:20.196Z,22.20
2018-02-19T17:50:23.113Z,29.05
2018-02-19T17:55:25.999Z,29.87
2018-02-19T18:00:31.886Z,28.70
2018-02-19T18:05:35.860Z,19.12
2018-02-19T18:10:39.278Z,18.58
2018-02-19T18:15:42.180Z,25.88
2018-02-19T18:20:45.089Z,24.20
2018-02-19T18:25:48.044Z,25.70
2018-02-19T18:30:52.166Z,22.40
2018-02-19T18:35:56.145Z,32.25
2018-02-19T18:40:59.605Z,21.10
2018-02-19T18:46:03.761Z,21.95
2018-02-19T18:51:08.675Z,24.12
2018-02-19T18:56:11.887Z,19.87
2018-02-19T19:01:16.335Z,22.67
2018-02-19T19:06:20.439Z,19.42
2018-02-19T19:11:24.616Z,30.15
2018-02-19T19:16:28.900Z,26.25
2018-02-19T19:21:32.992Z,24.67
2018-02-19T19:26:37.829Z,25.08
2018-02-19T19:31:41.279Z,22.52
2018-02-19T19:36:44.376Z,24.98
2018-02-19T19:41:48.443Z,24.87
2018-02-19T19:47:02.277Z,20.85
2018-02-19T19:52:10.077Z,24.37
2018-02-19T19:57:13.285Z,25.30
2018-02-19T20:02:18.804Z,27.10
2018-02-19T20:07:23.114Z,22.95
2018-02-19T20:12:27.631Z,24.27
2018-02-19T20:17:30.816Z,27.33
2018-02-19T20:22:34.227Z,27.67
2018-02-19T20:27:38.612Z,31.25
2018-02-19T20:32:47.790Z,25.83
2018-02-19T20:37:54.478Z,29.08
2018-02-19T20:43:00.493Z,27.03
2018-02-19T20:48:04.683Z,26.93
2018-02-19T20:53:07.809Z,21.47
2018-02-19T20:58:11.122Z,31.30
2018-02-19T21:03:24.012Z,39.20
2018-02-19T21:08:27.725Z,34.80
2018-02-19T21:13:31.221Z,29.65
2018-02-19T21:18:34.135Z,23.77
2018-02-19T21:23:37.191Z,24.27
2018-02-19T21:28:40.255Z,23.02
2018-02-19T21:33:43.645Z,20.85
2018-02-19T21:38:48.627Z,20.75
2018-02-19T21:43:51.650Z,20.08
2018-02-19T21:48:58.290Z,20.40
2018-02-19T21:54:01.609Z,21.02
2018-02-19T21:59:04.846Z,19.53
2018-02-19T22:04:08.071Z,18.90
2018-02-19T22:09:11.302Z,21.13
2018-02-19T22:14:14.319Z,20.42
2018-02-19T22:19:18.175Z,21.00
2018-02-19T22:24:21.301Z,17.98
2018-02-19T22:29:25.267Z,19.95
2018-02-19T22:34:34.908Z,22.98
2018-02-19T22:45:06.027Z,24.60
2018-02-19T22:50:09.085Z,24.37
2018-02-19T22:55:13.410Z,24.10
2018-02-19T23:00:16.581Z,25.45
2018-02-19T23:05:20.590Z,25.92
2018-02-19T23:10:29.649Z,24.53
2018-02-19T23:15:35.068Z,26.30
2018-02-19T23:20:39.458Z,29.45
2018-02-19T23:25:46.611Z,26.75
2018-02-19T23:30:49.537Z,25.33
2018-02-19T23:35:56.217Z,24.52
2018-02-19T23:41:03.952Z,23.45
2018-02-19T23:46:08.227Z,25.02
2018-02-19T23:51:12.803Z,21.95
2018-02-19T23:56:17.803Z,22.33
